Aeroporto :
LOGIN :

Iscrizione | Disclaimer

   EN    FR    IT 

 










Sommario :    VFR   VFR Marginale   IFR   IFR Intensivo   IFR Molto Intensivo
Visibilità : 
Base nubi : 
>= 8 km
>= 3000ft
5 / 8 km
1000 / 3000 ft
1500m / 5 km
500 / 1000 ft
800 / 1500m
200 / 500 ft
< 800m
< 200 ft
Simboli :   Temporali  Nebbia  Neve Forte  Precipitazioni Forti  Vento > 20 kt
SIGMETs :   Varie  Temporali  Ghiacco  Turbolenza  Onda orograficha  Ceneri Vulcaniche






- Altitudine del aeroporto : 681 ft
- Codice IATA : OSL


ENGM - Oslo Gardermoen

ULTIMO METAR :
  • 011520Z 22016KT CAVOK 09/M03 Q0997 NOSIG

METARs OBSOLETI :
  • 011450Z 21013KT CAVOK 08/M02 Q0998 NOSIG
  • 011420Z 21014KT CAVOK 08/M02 Q0998 NOSIG
  • 011350Z 21014KT CAVOK 08/M03 Q0999 NOSIG
  • 011320Z 20014KT CAVOK 08/M03 Q0999 NOSIG
  • 011250Z 20012KT CAVOK 09/M02 Q1000 NOSIG
  • 011220Z 20011KT CAVOK 09/M02 Q1000 NOSIG

TAF TAF ENGM
Valido dal 01 a 12 ore il 02 a 12 ore UTC


0112/0212 22012KT 9999 FEW040 SCT090
BECMG 0118/0120 VRB05KT
BECMG 0205/0207 21015KT
TEMPO 0209/0212 20018G30KT SHRA FEW020CB BKN025



MetMap, La meteo Aeronautica in un colpo d'occhio ! - Copyright ORBIFLY Dicembre 2007 - Disclaimer

ORBIFLY MET'MAP TEAM :

Programmazione e sviluppo : Alexandra Zaïnal
Concezione : Baudouin d'Aumeries
Aiuto per la programmazione : Marc-Olivier Méhu
Supporto tecnico e logistico : Manuel Goepfert
Aiuto per la traduzione : Arnaldo La Scala

Contatto : metmap@orbifly.com




FONTI E CREDITI :

   NOAA